Archival Weather

Chicago O'Hare International

Chicago, Illinois (KORD)

Report from: Saturday, August 6, 2022 8:51 AM CDT
Current time: Friday, August 19, 2022 12:43 AM CDT

Current weather
Weather history
Weather forecast

Temperature27.8°C (82.0°F)
Heat index30.7°C (87.2°F)
Dew point22.2°C (72.0°F)
Winds 6 kts (3.1 m/s, 6.9 mph) Southwest (230°)
Visibility10 mi. (16.1 km)
Clouds Scattered clouds 25,000 ft. (7,620 m)
Altimeter30.07 in.Hg (1018 mB)
Relative humidity72 %
Density altitude1,665 ft. (507 m)
Sea-level pressure101.8 kPa (1018 mB, 30.05 in.Hg)
Remarks Automated weather observing station with precipitation discriminator
Flight conditions Visual Meteorological Conditions
Raw dataKORD 061351Z 23006KT 10SM SCT250 28/22 A3007 RMK AO2 SLP176 T02780222
An unhandled exception has occurred. See browser dev tools for details. Reload 🗙